sensor_id;sensor_type;location;lat;lon;timestamp;P1;durP1;ratioP1;P2;durP2;ratioP2
27847;SDS011;15212;48.830;8.730;2023-04-21T00:02:01;130.12;;;30.35;;
27847;SDS011;15212;48.830;8.730;2023-04-21T00:04:30;159.35;;;29.12;;
27847;SDS011;15212;48.830;8.730;2023-04-21T00:06:58;175.20;;;29.40;;
27847;SDS011;15212;48.830;8.730;2023-04-21T00:09:28;162.55;;;28.38;;
27847;SDS011;15212;48.830;8.730;2023-04-21T00:11:57;85.57;;;27.20;;
27847;SDS011;15212;48.830;8.730;2023-04-21T00:14:26;170.35;;;27.87;;
27847;SDS011;15212;48.830;8.730;2023-04-21T00:16:54;180.97;;;28.07;;
27847;SDS011;15212;48.830;8.730;2023-04-21T00:19:25;198.38;;;27.60;;
27847;SDS011;15212;48.830;8.730;2023-04-21T00:21:55;215.30;;;27.80;;
27847;SDS011;15212;48.830;8.730;2023-04-21T00:24:25;145.62;;;23.73;;
27847;SDS011;15212;48.830;8.730;2023-04-21T00:26:54;156.25;;;24.07;;
27847;SDS011;15212;48.830;8.730;2023-04-21T00:29:22;187.32;;;25.20;;
27847;SDS011;15212;48.830;8.730;2023-04-21T00:31:51;232.65;;;24.65;;
27847;SDS011;15212;48.830;8.730;2023-04-21T00:34:19;225.43;;;24.02;;
27847;SDS011;15212;48.830;8.730;2023-04-21T00:36:47;158.93;;;24.90;;
27847;SDS011;15212;48.830;8.730;2023-04-21T00:39:16;114.12;;;24.05;;
27847;SDS011;15212;48.830;8.730;2023-04-21T00:41:44;58.60;;;23.38;;
27847;SDS011;15212;48.830;8.730;2023-04-21T00:44:12;110.85;;;23.62;;
27847;SDS011;15212;48.830;8.730;2023-04-21T00:46:41;66.57;;;23.57;;
27847;SDS011;15212;48.830;8.730;2023-04-21T00:49:10;59.40;;;24.18;;
27847;SDS011;15212;48.830;8.730;2023-04-21T00:51:38;48.13;;;23.18;;
27847;SDS011;15212;48.830;8.730;2023-04-21T00:54:08;135.97;;;23.67;;
27847;SDS011;15212;48.830;8.730;2023-04-21T00:56:38;204.15;;;25.30;;
27847;SDS011;15212;48.830;8.730;2023-04-21T00:59:06;198.62;;;27.87;;
27847;SDS011;15212;48.830;8.730;2023-04-21T01:01:35;132.50;;;24.55;;
27847;SDS011;15212;48.830;8.730;2023-04-21T01:04:05;143.85;;;25.97;;
27847;SDS011;15212;48.830;8.730;2023-04-21T01:06:35;112.52;;;24.18;;
27847;SDS011;15212;48.830;8.730;2023-04-21T01:09:03;278.88;;;28.70;;
27847;SDS011;15212;48.830;8.730;2023-04-21T01:11:32;164.62;;;25.48;;
27847;SDS011;15212;48.830;8.730;2023-04-21T01:14:00;163.52;;;24.98;;
27847;SDS011;15212;48.830;8.730;2023-04-21T01:16:30;154.90;;;25.35;;
27847;SDS011;15212;48.830;8.730;2023-04-21T01:18:59;173.00;;;25.00;;
27847;SDS011;15212;48.830;8.730;2023-04-21T01:21:37;147.57;;;24.23;;
27847;SDS011;15212;48.830;8.730;2023-04-21T01:24:07;90.70;;;22.77;;
27847;SDS011;15212;48.830;8.730;2023-04-21T01:26:36;67.65;;;22.20;;
27847;SDS011;15212;48.830;8.730;2023-04-21T01:29:05;63.90;;;23.12;;
27847;SDS011;15212;48.830;8.730;2023-04-21T01:31:33;104.32;;;24.25;;
27847;SDS011;15212;48.830;8.730;2023-04-21T01:34:02;114.35;;;23.12;;
27847;SDS011;15212;48.830;8.730;2023-04-21T01:36:31;156.22;;;24.95;;
27847;SDS011;15212;48.830;8.730;2023-04-21T01:39:02;191.12;;;25.20;;
27847;SDS011;15212;48.830;8.730;2023-04-21T01:41:30;242.18;;;26.55;;
27847;SDS011;15212;48.830;8.730;2023-04-21T01:43:59;89.40;;;22.98;;
27847;SDS011;15212;48.830;8.730;2023-04-21T01:46:27;58.52;;;22.67;;
27847;SDS011;15212;48.830;8.730;2023-04-21T01:48:55;114.12;;;23.30;;
27847;SDS011;15212;48.830;8.730;2023-04-21T01:51:24;90.95;;;21.95;;
27847;SDS011;15212;48.830;8.730;2023-04-21T01:53:53;89.42;;;22.90;;
27847;SDS011;15212;48.830;8.730;2023-04-21T01:56:21;91.17;;;23.02;;
27847;SDS011;15212;48.830;8.730;2023-04-21T01:58:49;122.58;;;22.15;;
27847;SDS011;15212;48.830;8.730;2023-04-21T02:01:18;175.05;;;22.60;;
27847;SDS011;15212;48.830;8.730;2023-04-21T02:03:46;115.47;;;23.22;;
27847;SDS011;15212;48.830;8.730;2023-04-21T02:06:14;161.05;;;24.27;;
27847;SDS011;15212;48.830;8.730;2023-04-21T02:08:43;273.38;;;23.73;;
27847;SDS011;15212;48.830;8.730;2023-04-21T02:11:11;73.95;;;20.62;;
27847;SDS011;15212;48.830;8.730;2023-04-21T02:13:40;251.60;;;24.92;;
27847;SDS011;15212;48.830;8.730;2023-04-21T02:16:08;256.40;;;23.45;;
27847;SDS011;15212;48.830;8.730;2023-04-21T02:18:37;121.87;;;21.62;;
27847;SDS011;15212;48.830;8.730;2023-04-21T02:21:06;212.12;;;22.02;;
27847;SDS011;15212;48.830;8.730;2023-04-21T02:23:34;162.55;;;21.87;;
27847;SDS011;15212;48.830;8.730;2023-04-21T02:26:02;122.87;;;20.02;;
27847;SDS011;15212;48.830;8.730;2023-04-21T02:28:31;75.08;;;19.82;;
27847;SDS011;15212;48.830;8.730;2023-04-21T02:30:59;58.73;;;20.77;;
27847;SDS011;15212;48.830;8.730;2023-04-21T02:33:28;85.90;;;20.17;;
27847;SDS011;15212;48.830;8.730;2023-04-21T02:35:56;171.65;;;22.90;;
27847;SDS011;15212;48.830;8.730;2023-04-21T02:38:25;74.92;;;20.45;;
27847;SDS011;15212;48.830;8.730;2023-04-21T02:40:53;350.85;;;27.75;;
27847;SDS011;15212;48.830;8.730;2023-04-21T02:43:23;177.12;;;22.62;;
27847;SDS011;15212;48.830;8.730;2023-04-21T02:45:51;225.05;;;23.80;;
27847;SDS011;15212;48.830;8.730;2023-04-21T02:48:20;317.32;;;25.10;;
27847;SDS011;15212;48.830;8.730;2023-04-21T02:50:49;224.47;;;22.05;;
27847;SDS011;15212;48.830;8.730;2023-04-21T02:53:18;161.05;;;20.85;;
27847;SDS011;15212;48.830;8.730;2023-04-21T02:55:47;188.18;;;21.33;;
27847;SDS011;15212;48.830;8.730;2023-04-21T02:58:16;217.70;;;22.05;;
27847;SDS011;15212;48.830;8.730;2023-04-21T03:00:44;171.82;;;20.10;;
27847;SDS011;15212;48.830;8.730;2023-04-21T03:03:14;97.82;;;20.88;;
27847;SDS011;15212;48.830;8.730;2023-04-21T03:05:42;187.43;;;19.73;;
27847;SDS011;15212;48.830;8.730;2023-04-21T03:08:10;249.18;;;22.98;;
27847;SDS011;15212;48.830;8.730;2023-04-21T03:10:39;149.50;;;21.52;;
27847;SDS011;15212;48.830;8.730;2023-04-21T03:13:07;86.50;;;19.57;;
27847;SDS011;15212;48.830;8.730;2023-04-21T03:15:36;96.95;;;20.23;;
27847;SDS011;15212;48.830;8.730;2023-04-21T03:18:04;49.85;;;18.15;;
27847;SDS011;15212;48.830;8.730;2023-04-21T03:20:32;53.38;;;18.52;;
27847;SDS011;15212;48.830;8.730;2023-04-21T03:23:01;56.20;;;18.15;;
27847;SDS011;15212;48.830;8.730;2023-04-21T03:25:29;56.58;;;18.73;;
27847;SDS011;15212;48.830;8.730;2023-04-21T03:27:58;41.33;;;19.17;;
27847;SDS011;15212;48.830;8.730;2023-04-21T03:30:26;41.02;;;18.67;;
27847;SDS011;15212;48.830;8.730;2023-04-21T03:32:55;42.83;;;18.35;;
27847;SDS011;15212;48.830;8.730;2023-04-21T03:35:25;39.60;;;18.17;;
27847;SDS011;15212;48.830;8.730;2023-04-21T03:37:53;38.10;;;17.75;;
27847;SDS011;15212;48.830;8.730;2023-04-21T03:40:21;39.75;;;16.95;;
27847;SDS011;15212;48.830;8.730;2023-04-21T03:42:50;38.40;;;17.77;;
27847;SDS011;15212;48.830;8.730;2023-04-21T03:45:18;40.03;;;17.75;;
27847;SDS011;15212;48.830;8.730;2023-04-21T03:47:51;44.30;;;18.70;;
27847;SDS011;15212;48.830;8.730;2023-04-21T03:50:21;44.63;;;19.02;;
27847;SDS011;15212;48.830;8.730;2023-04-21T03:52:50;39.13;;;18.07;;
27847;SDS011;15212;48.830;8.730;2023-04-21T03:55:18;37.45;;;17.77;;
27847;SDS011;15212;48.830;8.730;2023-04-21T03:57:46;39.05;;;16.93;;
27847;SDS011;15212;48.830;8.730;2023-04-21T04:00:15;42.55;;;17.35;;
27847;SDS011;15212;48.830;8.730;2023-04-21T04:02:43;37.03;;;17.35;;
27847;SDS011;15212;48.830;8.730;2023-04-21T04:05:12;38.42;;;17.27;;
27847;SDS011;15212;48.830;8.730;2023-04-21T04:07:40;38.80;;;16.85;;
27847;SDS011;15212;48.830;8.730;2023-04-21T04:10:08;35.08;;;15.75;;
27847;SDS011;15212;48.830;8.730;2023-04-21T04:12:37;39.35;;;17.42;;
27847;SDS011;15212;48.830;8.730;2023-04-21T04:15:06;42.60;;;18.65;;
27847;SDS011;15212;48.830;8.730;2023-04-21T04:17:34;38.67;;;17.67;;
27847;SDS011;15212;48.830;8.730;2023-04-21T04:20:04;41.77;;;17.37;;
27847;SDS011;15212;48.830;8.730;2023-04-21T04:22:34;37.10;;;16.75;;
27847;SDS011;15212;48.830;8.730;2023-04-21T04:25:03;41.55;;;17.62;;
27847;SDS011;15212;48.830;8.730;2023-04-21T04:27:31;35.88;;;15.83;;
27847;SDS011;15212;48.830;8.730;2023-04-21T04:30:00;33.38;;;16.48;;
27847;SDS011;15212;48.830;8.730;2023-04-21T04:32:28;36.93;;;17.32;;
27847;SDS011;15212;48.830;8.730;2023-04-21T04:34:58;33.78;;;15.90;;
27847;SDS011;15212;48.830;8.730;2023-04-21T04:37:27;33.18;;;15.40;;
27847;SDS011;15212;48.830;8.730;2023-04-21T04:39:56;30.92;;;15.10;;
27847;SDS011;15212;48.830;8.730;2023-04-21T04:42:24;32.60;;;14.83;;
27847;SDS011;15212;48.830;8.730;2023-04-21T04:44:53;33.08;;;15.35;;
27847;SDS011;15212;48.830;8.730;2023-04-21T04:47:24;28.77;;;15.20;;
27847;SDS011;15212;48.830;8.730;2023-04-21T04:49:53;31.07;;;14.70;;
27847;SDS011;15212;48.830;8.730;2023-04-21T04:52:21;31.17;;;14.60;;
27847;SDS011;15212;48.830;8.730;2023-04-21T04:54:50;29.92;;;15.05;;
27847;SDS011;15212;48.830;8.730;2023-04-21T04:57:18;32.25;;;13.98;;
27847;SDS011;15212;48.830;8.730;2023-04-21T04:59:47;32.60;;;15.13;;
27847;SDS011;15212;48.830;8.730;2023-04-21T05:02:16;33.83;;;15.20;;
27847;SDS011;15212;48.830;8.730;2023-04-21T05:04:44;32.23;;;14.85;;
27847;SDS011;15212;48.830;8.730;2023-04-21T05:07:13;31.17;;;15.70;;
27847;SDS011;15212;48.830;8.730;2023-04-21T05:09:41;30.27;;;15.30;;
27847;SDS011;15212;48.830;8.730;2023-04-21T05:12:09;29.10;;;13.93;;
27847;SDS011;15212;48.830;8.730;2023-04-21T05:14:38;35.92;;;15.90;;
27847;SDS011;15212;48.830;8.730;2023-04-21T05:17:06;36.15;;;16.97;;
27847;SDS011;15212;48.830;8.730;2023-04-21T05:19:35;34.50;;;17.07;;
27847;SDS011;15212;48.830;8.730;2023-04-21T05:22:03;34.55;;;16.80;;
27847;SDS011;15212;48.830;8.730;2023-04-21T05:24:32;33.73;;;16.20;;
27847;SDS011;15212;48.830;8.730;2023-04-21T05:27:01;34.98;;;16.87;;
27847;SDS011;15212;48.830;8.730;2023-04-21T05:29:29;34.38;;;16.65;;
27847;SDS011;15212;48.830;8.730;2023-04-21T05:31:59;32.95;;;16.27;;
27847;SDS011;15212;48.830;8.730;2023-04-21T05:34:27;33.98;;;16.20;;
27847;SDS011;15212;48.830;8.730;2023-04-21T05:36:55;34.85;;;16.73;;
27847;SDS011;15212;48.830;8.730;2023-04-21T05:39:25;33.75;;;16.17;;
27847;SDS011;15212;48.830;8.730;2023-04-21T05:41:54;36.48;;;17.25;;
27847;SDS011;15212;48.830;8.730;2023-04-21T05:44:23;43.48;;;21.00;;
27847;SDS011;15212;48.830;8.730;2023-04-21T05:46:51;52.50;;;24.82;;
27847;SDS011;15212;48.830;8.730;2023-04-21T05:49:19;35.92;;;17.42;;
27847;SDS011;15212;48.830;8.730;2023-04-21T05:51:48;30.05;;;15.63;;
27847;SDS011;15212;48.830;8.730;2023-04-21T05:54:16;33.98;;;16.27;;
27847;SDS011;15212;48.830;8.730;2023-04-21T05:56:45;29.27;;;15.40;;
27847;SDS011;15212;48.830;8.730;2023-04-21T05:59:13;29.18;;;14.35;;
27847;SDS011;15212;48.830;8.730;2023-04-21T06:01:42;27.60;;;14.07;;
27847;SDS011;15212;48.830;8.730;2023-04-21T06:04:10;29.95;;;14.78;;
27847;SDS011;15212;48.830;8.730;2023-04-21T06:06:39;24.20;;;13.30;;
27847;SDS011;15212;48.830;8.730;2023-04-21T06:09:09;24.00;;;13.00;;
27847;SDS011;15212;48.830;8.730;2023-04-21T06:11:39;21.12;;;11.73;;
27847;SDS011;15212;48.830;8.730;2023-04-21T06:14:07;16.70;;;10.05;;
27847;SDS011;15212;48.830;8.730;2023-04-21T06:16:36;12.85;;;7.97;;
27847;SDS011;15212;48.830;8.730;2023-04-21T06:19:04;11.33;;;6.75;;
27847;SDS011;15212;48.830;8.730;2023-04-21T06:21:33;12.18;;;8.15;;
27847;SDS011;15212;48.830;8.730;2023-04-21T06:24:01;12.00;;;7.62;;
27847;SDS011;15212;48.830;8.730;2023-04-21T06:26:30;13.93;;;7.47;;
27847;SDS011;15212;48.830;8.730;2023-04-21T06:28:58;14.20;;;8.33;;
27847;SDS011;15212;48.830;8.730;2023-04-21T06:31:26;12.10;;;7.70;;
27847;SDS011;15212;48.830;8.730;2023-04-21T06:33:55;13.90;;;9.18;;
27847;SDS011;15212;48.830;8.730;2023-04-21T06:36:24;14.47;;;8.95;;
27847;SDS011;15212;48.830;8.730;2023-04-21T06:38:53;12.98;;;7.97;;
27847;SDS011;15212;48.830;8.730;2023-04-21T06:41:22;15.15;;;9.15;;
27847;SDS011;15212;48.830;8.730;2023-04-21T06:43:51;12.70;;;8.28;;
27847;SDS011;15212;48.830;8.730;2023-04-21T06:46:19;12.25;;;8.15;;
27847;SDS011;15212;48.830;8.730;2023-04-21T06:48:48;13.95;;;8.00;;
27847;SDS011;15212;48.830;8.730;2023-04-21T06:51:16;13.28;;;8.10;;
27847;SDS011;15212;48.830;8.730;2023-04-21T06:53:44;13.43;;;8.80;;
27847;SDS011;15212;48.830;8.730;2023-04-21T06:56:13;13.22;;;8.40;;
27847;SDS011;15212;48.830;8.730;2023-04-21T06:58:41;13.65;;;8.53;;
27847;SDS011;15212;48.830;8.730;2023-04-21T07:01:11;12.13;;;8.25;;
27847;SDS011;15212;48.830;8.730;2023-04-21T07:03:40;13.90;;;9.28;;
27847;SDS011;15212;48.830;8.730;2023-04-21T07:06:08;13.38;;;9.10;;
27847;SDS011;15212;48.830;8.730;2023-04-21T07:08:37;14.90;;;9.03;;
27847;SDS011;15212;48.830;8.730;2023-04-21T07:11:06;17.02;;;10.00;;
27847;SDS011;15212;48.830;8.730;2023-04-21T07:13:34;19.32;;;10.53;;
27847;SDS011;15212;48.830;8.730;2023-04-21T07:16:03;16.70;;;10.40;;
27847;SDS011;15212;48.830;8.730;2023-04-21T07:18:31;17.60;;;10.43;;
27847;SDS011;15212;48.830;8.730;2023-04-21T07:21:00;15.20;;;9.73;;
27847;SDS011;15212;48.830;8.730;2023-04-21T07:23:28;19.75;;;10.75;;
27847;SDS011;15212;48.830;8.730;2023-04-21T07:25:56;18.77;;;10.55;;
27847;SDS011;15212;48.830;8.730;2023-04-21T07:28:25;16.10;;;9.08;;
27847;SDS011;15212;48.830;8.730;2023-04-21T07:30:54;16.80;;;10.13;;
27847;SDS011;15212;48.830;8.730;2023-04-21T07:33:22;17.10;;;9.68;;
27847;SDS011;15212;48.830;8.730;2023-04-21T07:35:50;16.87;;;9.85;;
27847;SDS011;15212;48.830;8.730;2023-04-21T07:38:19;14.40;;;9.13;;
27847;SDS011;15212;48.830;8.730;2023-04-21T07:40:47;14.95;;;9.50;;
27847;SDS011;15212;48.830;8.730;2023-04-21T07:43:15;15.45;;;9.25;;
27847;SDS011;15212;48.830;8.730;2023-04-21T07:45:45;17.00;;;9.45;;
27847;SDS011;15212;48.830;8.730;2023-04-21T07:48:16;15.72;;;8.80;;
27847;SDS011;15212;48.830;8.730;2023-04-21T07:50:44;12.40;;;7.12;;
27847;SDS011;15212;48.830;8.730;2023-04-21T07:53:12;11.93;;;7.20;;
27847;SDS011;15212;48.830;8.730;2023-04-21T07:55:41;12.13;;;7.53;;
27847;SDS011;15212;48.830;8.730;2023-04-21T07:58:09;15.35;;;7.08;;
27847;SDS011;15212;48.830;8.730;2023-04-21T08:00:38;14.73;;;7.12;;
27847;SDS011;15212;48.830;8.730;2023-04-21T08:03:07;10.25;;;5.80;;
27847;SDS011;15212;48.830;8.730;2023-04-21T08:05:35;14.65;;;6.60;;
27847;SDS011;15212;48.830;8.730;2023-04-21T08:08:04;12.80;;;6.72;;
27847;SDS011;15212;48.830;8.730;2023-04-21T08:10:32;13.68;;;6.95;;
27847;SDS011;15212;48.830;8.730;2023-04-21T08:13:01;12.20;;;6.97;;
27847;SDS011;15212;48.830;8.730;2023-04-21T08:15:32;13.55;;;7.35;;
27847;SDS011;15212;48.830;8.730;2023-04-21T08:18:00;14.13;;;8.40;;
27847;SDS011;15212;48.830;8.730;2023-04-21T08:20:29;14.38;;;8.18;;
27847;SDS011;15212;48.830;8.730;2023-04-21T08:23:00;12.68;;;7.78;;
27847;SDS011;15212;48.830;8.730;2023-04-21T08:25:29;13.40;;;7.00;;
27847;SDS011;15212;48.830;8.730;2023-04-21T08:27:57;14.35;;;8.20;;
27847;SDS011;15212;48.830;8.730;2023-04-21T08:30:26;14.07;;;7.92;;
27847;SDS011;15212;48.830;8.730;2023-04-21T08:32:55;13.55;;;6.78;;
27847;SDS011;15212;48.830;8.730;2023-04-21T08:35:23;12.15;;;6.90;;
27847;SDS011;15212;48.830;8.730;2023-04-21T08:37:52;12.18;;;6.55;;
27847;SDS011;15212;48.830;8.730;2023-04-21T08:40:20;13.65;;;7.92;;
27847;SDS011;15212;48.830;8.730;2023-04-21T08:42:52;12.93;;;6.87;;
27847;SDS011;15212;48.830;8.730;2023-04-21T08:45:20;12.25;;;6.78;;
27847;SDS011;15212;48.830;8.730;2023-04-21T08:47:48;12.33;;;7.17;;
27847;SDS011;15212;48.830;8.730;2023-04-21T08:50:18;23.27;;;10.15;;
27847;SDS011;15212;48.830;8.730;2023-04-21T08:52:47;15.63;;;7.55;;
27847;SDS011;15212;48.830;8.730;2023-04-21T08:55:15;15.93;;;7.97;;
27847;SDS011;15212;48.830;8.730;2023-04-21T08:57:44;15.88;;;8.08;;
27847;SDS011;15212;48.830;8.730;2023-04-21T09:00:13;13.80;;;7.90;;
27847;SDS011;15212;48.830;8.730;2023-04-21T09:02:51;16.87;;;7.42;;
27847;SDS011;15212;48.830;8.730;2023-04-21T09:05:27;12.05;;;7.62;;
27847;SDS011;15212;48.830;8.730;2023-04-21T09:08:05;12.18;;;6.90;;
27847;SDS011;15212;48.830;8.730;2023-04-21T09:10:41;11.75;;;6.28;;
27847;SDS011;15212;48.830;8.730;2023-04-21T09:13:15;12.80;;;6.62;;
27847;SDS011;15212;48.830;8.730;2023-04-21T09:15:45;11.05;;;6.65;;
27847;SDS011;15212;48.830;8.730;2023-04-21T09:18:17;11.25;;;6.65;;
27847;SDS011;15212;48.830;8.730;2023-04-21T09:20:49;10.68;;;7.00;;
27847;SDS011;15212;48.830;8.730;2023-04-21T09:23:46;13.22;;;7.10;;
27847;SDS011;15212;48.830;8.730;2023-04-21T09:26:20;9.40;;;6.45;;
27847;SDS011;15212;48.830;8.730;2023-04-21T09:28:50;10.88;;;6.40;;
27847;SDS011;15212;48.830;8.730;2023-04-21T09:31:20;11.93;;;6.60;;
27847;SDS011;15212;48.830;8.730;2023-04-21T09:33:53;10.93;;;7.00;;
27847;SDS011;15212;48.830;8.730;2023-04-21T09:36:26;13.38;;;7.33;;
27847;SDS011;15212;48.830;8.730;2023-04-21T09:38:57;11.83;;;6.92;;
27847;SDS011;15212;48.830;8.730;2023-04-21T09:41:30;13.75;;;7.35;;
27847;SDS011;15212;48.830;8.730;2023-04-21T09:43:59;15.55;;;8.03;;
27847;SDS011;15212;48.830;8.730;2023-04-21T09:46:31;15.03;;;7.53;;
27847;SDS011;15212;48.830;8.730;2023-04-21T09:49:01;14.03;;;7.92;;
27847;SDS011;15212;48.830;8.730;2023-04-21T09:51:31;12.10;;;7.05;;
27847;SDS011;15212;48.830;8.730;2023-04-21T09:54:00;11.00;;;7.10;;
27847;SDS011;15212;48.830;8.730;2023-04-21T09:56:41;10.75;;;6.47;;
27847;SDS011;15212;48.830;8.730;2023-04-21T09:59:16;10.75;;;6.42;;
27847;SDS011;15212;48.830;8.730;2023-04-21T10:01:47;10.53;;;5.62;;
27847;SDS011;15212;48.830;8.730;2023-04-21T10:04:16;8.90;;;5.58;;
27847;SDS011;15212;48.830;8.730;2023-04-21T10:06:47;31.20;;;7.50;;
27847;SDS011;15212;48.830;8.730;2023-04-21T10:09:17;8.58;;;5.37;;
27847;SDS011;15212;48.830;8.730;2023-04-21T10:11:48;15.60;;;5.97;;
27847;SDS011;15212;48.830;8.730;2023-04-21T10:14:18;10.20;;;5.40;;
27847;SDS011;15212;48.830;8.730;2023-04-21T10:16:57;11.20;;;5.85;;
27847;SDS011;15212;48.830;8.730;2023-04-21T10:19:35;9.58;;;5.80;;
27847;SDS011;15212;48.830;8.730;2023-04-21T10:22:07;10.78;;;6.47;;
27847;SDS011;15212;48.830;8.730;2023-04-21T10:24:37;12.73;;;6.70;;
27847;SDS011;15212;48.830;8.730;2023-04-21T10:27:11;12.03;;;6.67;;
27847;SDS011;15212;48.830;8.730;2023-04-21T10:29:43;11.80;;;6.47;;
27847;SDS011;15212;48.830;8.730;2023-04-21T10:32:11;11.03;;;6.33;;
27847;SDS011;15212;48.830;8.730;2023-04-21T10:34:44;13.53;;;6.45;;
27847;SDS011;15212;48.830;8.730;2023-04-21T10:37:15;12.15;;;6.70;;
27847;SDS011;15212;48.830;8.730;2023-04-21T10:39:45;10.38;;;6.30;;
27847;SDS011;15212;48.830;8.730;2023-04-21T10:42:22;10.88;;;6.53;;
27847;SDS011;15212;48.830;8.730;2023-04-21T10:47:35;9.70;;;6.35;;
27847;SDS011;15212;48.830;8.730;2023-04-21T10:50:14;12.25;;;5.95;;
27847;SDS011;15212;48.830;8.730;2023-04-21T10:52:51;9.20;;;6.08;;
27847;SDS011;15212;48.830;8.730;2023-04-21T10:55:26;13.68;;;6.85;;
27847;SDS011;15212;48.830;8.730;2023-04-21T10:57:55;9.45;;;6.25;;
27847;SDS011;15212;48.830;8.730;2023-04-21T11:00:27;11.38;;;7.20;;
27847;SDS011;15212;48.830;8.730;2023-04-21T11:02:57;10.95;;;6.47;;
27847;SDS011;15212;48.830;8.730;2023-04-21T11:05:29;10.63;;;6.28;;
27847;SDS011;15212;48.830;8.730;2023-04-21T11:08:03;11.63;;;7.60;;
27847;SDS011;15212;48.830;8.730;2023-04-21T11:13:16;12.95;;;7.22;;
27847;SDS011;15212;48.830;8.730;2023-04-21T11:15:56;10.88;;;6.72;;
27847;SDS011;15212;48.830;8.730;2023-04-21T11:18:43;10.58;;;6.83;;
27847;SDS011;15212;48.830;8.730;2023-04-21T11:21:17;11.75;;;6.35;;
27847;SDS011;15212;48.830;8.730;2023-04-21T11:23:55;9.90;;;6.70;;
27847;SDS011;15212;48.830;8.730;2023-04-21T11:26:35;13.32;;;7.03;;
27847;SDS011;15212;48.830;8.730;2023-04-21T11:29:04;10.32;;;6.90;;
27847;SDS011;15212;48.830;8.730;2023-04-21T11:31:34;11.45;;;6.85;;
27847;SDS011;15212;48.830;8.730;2023-04-21T11:34:05;9.93;;;6.35;;
27847;SDS011;15212;48.830;8.730;2023-04-21T11:36:38;9.63;;;6.05;;
27847;SDS011;15212;48.830;8.730;2023-04-21T11:39:10;13.93;;;6.43;;
27847;SDS011;15212;48.830;8.730;2023-04-21T11:41:42;12.78;;;6.40;;
27847;SDS011;15212;48.830;8.730;2023-04-21T11:44:13;10.90;;;5.85;;
27847;SDS011;15212;48.830;8.730;2023-04-21T11:46:54;9.70;;;5.87;;
27847;SDS011;15212;48.830;8.730;2023-04-21T11:49:25;9.25;;;6.25;;
27847;SDS011;15212;48.830;8.730;2023-04-21T11:51:55;9.85;;;6.00;;
27847;SDS011;15212;48.830;8.730;2023-04-21T11:54:23;8.95;;;5.78;;
27847;SDS011;15212;48.830;8.730;2023-04-21T11:56:52;9.45;;;5.53;;
27847;SDS011;15212;48.830;8.730;2023-04-21T11:59:21;9.73;;;5.53;;
27847;SDS011;15212;48.830;8.730;2023-04-21T12:01:51;9.15;;;5.87;;
27847;SDS011;15212;48.830;8.730;2023-04-21T12:04:21;8.10;;;5.70;;
27847;SDS011;15212;48.830;8.730;2023-04-21T12:06:58;8.48;;;5.55;;
27847;SDS011;15212;48.830;8.730;2023-04-21T12:09:28;9.85;;;6.15;;
27847;SDS011;15212;48.830;8.730;2023-04-21T12:11:57;14.28;;;5.95;;
27847;SDS011;15212;48.830;8.730;2023-04-21T12:14:27;12.07;;;6.92;;
27847;SDS011;15212;48.830;8.730;2023-04-21T12:16:57;10.75;;;6.60;;
27847;SDS011;15212;48.830;8.730;2023-04-21T12:19:40;12.00;;;7.72;;
27847;SDS011;15212;48.830;8.730;2023-04-21T12:22:06;14.00;;;7.22;;
27847;SDS011;15212;48.830;8.730;2023-04-21T12:24:37;14.25;;;7.37;;
27847;SDS011;15212;48.830;8.730;2023-04-21T12:27:06;12.10;;;7.22;;
27847;SDS011;15212;48.830;8.730;2023-04-21T12:29:35;10.98;;;6.95;;
27847;SDS011;15212;48.830;8.730;2023-04-21T12:32:04;12.00;;;7.85;;
27847;SDS011;15212;48.830;8.730;2023-04-21T12:34:34;12.10;;;6.75;;
27847;SDS011;15212;48.830;8.730;2023-04-21T12:37:03;13.88;;;7.47;;
27847;SDS011;15212;48.830;8.730;2023-04-21T12:39:33;15.50;;;8.25;;
27847;SDS011;15212;48.830;8.730;2023-04-21T12:42:02;14.93;;;7.47;;
27847;SDS011;15212;48.830;8.730;2023-04-21T12:44:31;11.53;;;7.53;;
27847;SDS011;15212;48.830;8.730;2023-04-21T12:46:59;13.00;;;8.25;;
27847;SDS011;15212;48.830;8.730;2023-04-21T12:49:28;13.18;;;7.87;;
27847;SDS011;15212;48.830;8.730;2023-04-21T12:51:56;11.70;;;7.22;;
27847;SDS011;15212;48.830;8.730;2023-04-21T12:54:25;12.28;;;7.17;;
27847;SDS011;15212;48.830;8.730;2023-04-21T12:56:53;10.98;;;7.33;;
27847;SDS011;15212;48.830;8.730;2023-04-21T12:59:23;12.73;;;7.67;;
27847;SDS011;15212;48.830;8.730;2023-04-21T13:01:51;10.78;;;6.35;;
27847;SDS011;15212;48.830;8.730;2023-04-21T13:04:20;10.05;;;6.47;;
27847;SDS011;15212;48.830;8.730;2023-04-21T13:06:48;9.68;;;5.65;;
27847;SDS011;15212;48.830;8.730;2023-04-21T13:09:16;11.08;;;6.00;;
27847;SDS011;15212;48.830;8.730;2023-04-21T13:11:45;11.20;;;6.85;;
27847;SDS011;15212;48.830;8.730;2023-04-21T13:14:13;12.35;;;6.58;;
27847;SDS011;15212;48.830;8.730;2023-04-21T13:16:42;9.38;;;5.70;;
27847;SDS011;15212;48.830;8.730;2023-04-21T13:19:11;12.37;;;7.45;;
27847;SDS011;15212;48.830;8.730;2023-04-21T13:21:39;10.63;;;5.62;;
27847;SDS011;15212;48.830;8.730;2023-04-21T13:24:08;9.98;;;6.08;;
27847;SDS011;15212;48.830;8.730;2023-04-21T13:26:36;9.13;;;5.08;;
27847;SDS011;15212;48.830;8.730;2023-04-21T13:29:05;8.60;;;5.40;;
27847;SDS011;15212;48.830;8.730;2023-04-21T13:31:33;7.92;;;4.67;;
27847;SDS011;15212;48.830;8.730;2023-04-21T13:34:02;7.75;;;4.78;;
27847;SDS011;15212;48.830;8.730;2023-04-21T13:36:30;7.28;;;4.37;;
27847;SDS011;15212;48.830;8.730;2023-04-21T13:38:59;9.75;;;5.53;;
27847;SDS011;15212;48.830;8.730;2023-04-21T13:41:30;10.32;;;6.42;;
27847;SDS011;15212;48.830;8.730;2023-04-21T13:43:58;8.65;;;5.85;;
27847;SDS011;15212;48.830;8.730;2023-04-21T13:46:27;7.28;;;4.60;;
27847;SDS011;15212;48.830;8.730;2023-04-21T13:48:55;6.80;;;4.05;;
27847;SDS011;15212;48.830;8.730;2023-04-21T13:51:24;6.12;;;4.05;;
27847;SDS011;15212;48.830;8.730;2023-04-21T13:53:52;7.62;;;4.72;;
27847;SDS011;15212;48.830;8.730;2023-04-21T13:56:21;7.30;;;5.12;;
27847;SDS011;15212;48.830;8.730;2023-04-21T13:58:50;8.85;;;4.85;;
27847;SDS011;15212;48.830;8.730;2023-04-21T14:01:19;6.90;;;4.50;;
27847;SDS011;15212;48.830;8.730;2023-04-21T14:03:48;7.72;;;4.60;;
27847;SDS011;15212;48.830;8.730;2023-04-21T14:06:17;9.70;;;4.62;;
27847;SDS011;15212;48.830;8.730;2023-04-21T14:08:45;9.18;;;4.90;;
27847;SDS011;15212;48.830;8.730;2023-04-21T14:11:13;8.70;;;4.85;;
27847;SDS011;15212;48.830;8.730;2023-04-21T14:13:42;8.63;;;4.75;;
27847;SDS011;15212;48.830;8.730;2023-04-21T14:16:10;9.18;;;4.95;;
27847;SDS011;15212;48.830;8.730;2023-04-21T14:18:39;9.33;;;5.00;;
27847;SDS011;15212;48.830;8.730;2023-04-21T14:21:10;9.00;;;4.92;;
27847;SDS011;15212;48.830;8.730;2023-04-21T14:23:38;8.63;;;4.58;;
27847;SDS011;15212;48.830;8.730;2023-04-21T14:26:07;5.87;;;4.25;;
27847;SDS011;15212;48.830;8.730;2023-04-21T14:28:36;5.28;;;3.87;;
27847;SDS011;15212;48.830;8.730;2023-04-21T14:31:05;6.58;;;3.80;;
27847;SDS011;15212;48.830;8.730;2023-04-21T14:33:33;6.17;;;3.83;;
27847;SDS011;15212;48.830;8.730;2023-04-21T14:36:02;7.05;;;3.90;;
27847;SDS011;15212;48.830;8.730;2023-04-21T14:38:31;7.47;;;4.08;;
27847;SDS011;15212;48.830;8.730;2023-04-21T14:41:00;7.62;;;3.62;;
27847;SDS011;15212;48.830;8.730;2023-04-21T14:43:29;6.28;;;4.00;;
27847;SDS011;15212;48.830;8.730;2023-04-21T14:45:57;6.30;;;3.87;;
27847;SDS011;15212;48.830;8.730;2023-04-21T14:48:25;5.78;;;3.70;;